Time;durP1;ratioP1;P1;durP2;ratioP2;P2;SDS_P1;SDS_P2;PMS_P1;PMS_P2;Temp;Humidity;BMP_temperature;BMP_pressure;BME280_temperature;BME280_humidity;BME280_pressure;Samples;Min_cycle;Max_cycle;Signal;HPM_P1;HPM_P2
2021/07/28 00:00:33;;;;;;;8.70;3.85;;;21.00;78.60;;;;;;10095444;28;20087;-58
2021/07/28 00:05:23;;;;;;;5.43;3.45;;;20.90;78.70;;;;;;10095530;28;20048;-58
2021/07/28 00:10:14;;;;;;;7.57;3.40;;;21.00;78.70;;;;;;10095421;28;20051;-58
2021/07/28 00:15:07;;;;;;;6.43;3.53;;;21.00;78.90;;;;;;10095782;28;20710;-59
2021/07/28 00:20:08;;;;;;;4.88;3.45;;;20.90;79.10;;;;;;10094902;28;20400;-58
2021/07/28 00:24:58;;;;;;;6.22;3.33;;;20.80;79.40;;;;;;10095087;28;20100;-58
2021/07/28 00:29:49;;;;;;;7.38;4.25;;;20.80;79.40;;;;;;10094116;28;20218;-59
2021/07/28 00:34:41;;;;;;;5.90;3.13;;;20.90;79.60;;;;;;10094456;28;20033;-58
2021/07/28 00:39:31;;;;;;;5.68;3.65;;;20.90;79.50;;;;;;10094025;28;20037;-59
2021/07/28 00:44:22;;;;;;;7.40;3.72;;;20.80;79.90;;;;;;10094836;28;20495;-58
2021/07/28 00:49:13;;;;;;;6.63;3.75;;;20.70;79.70;;;;;;10093889;28;20463;-58
2021/07/28 00:54:04;;;;;;;5.65;3.40;;;20.70;79.70;;;;;;10094111;28;20058;-58
2021/07/28 00:58:58;;;;;;;7.07;4.28;;;20.80;79.70;;;;;;10093223;28;20093;-58
2021/07/28 01:03:49;;;;;;;4.83;3.57;;;20.70;79.90;;;;;;10093532;28;20052;-58
2021/07/28 01:08:40;;;;;;;5.15;3.00;;;20.80;79.70;;;;;;10093222;28;20052;-58
2021/07/28 01:13:34;;;;;;;5.13;3.55;;;20.80;79.80;;;;;;10093378;28;20036;-59
2021/07/28 01:18:24;;;;;;;6.63;4.03;;;20.60;79.80;;;;;;10093445;28;20704;-58
2021/07/28 01:23:21;;;;;;;6.05;3.75;;;20.60;80.10;;;;;;10093602;28;20032;-58
2021/07/28 01:28:12;;;;;;;7.93;4.15;;;20.50;80.30;;;;;;10092795;28;20415;-58
2021/07/28 01:33:03;;;;;;;6.40;3.95;;;20.30;80.80;;;;;;10092057;28;20021;-58
2021/07/28 01:37:54;;;;;;;6.82;4.68;;;20.20;81.10;;;;;;10093254;28;20029;-58
2021/07/28 01:42:46;;;;;;;7.35;4.38;;;20.20;81.20;;;;;;10092505;28;20104;-58
2021/07/28 01:47:37;;;;;;;8.43;4.38;;;20.20;81.30;;;;;;10093355;28;20499;-58
2021/07/28 01:52:27;;;;;;;6.68;4.25;;;20.20;81.60;;;;;;10095555;28;20079;-57
2021/07/28 01:57:18;;;;;;;6.30;4.03;;;20.10;81.80;;;;;;10109151;28;20159;-58
2021/07/28 02:02:09;;;;;;;6.63;3.90;;;20.10;82.00;;;;;;10103864;28;20025;-58
2021/07/28 02:06:59;;;;;;;5.63;3.65;;;20.10;82.00;;;;;;10098853;28;20064;-59
2021/07/28 02:11:50;;;;;;;7.95;4.05;;;20.10;82.00;;;;;;10098628;28;20195;-58
2021/07/28 02:16:40;;;;;;;5.70;3.83;;;20.10;82.40;;;;;;10099852;28;20359;-58
2021/07/28 02:21:33;;;;;;;7.80;4.05;;;20.10;82.40;;;;;;10099976;28;20025;-58
2021/07/28 02:26:24;;;;;;;7.32;4.53;;;20.10;82.60;;;;;;10099729;28;20037;-59
2021/07/28 02:31:14;;;;;;;8.32;4.68;;;20.00;82.80;;;;;;10097475;28;20036;-58
2021/07/28 02:36:05;;;;;;;9.85;5.07;;;20.10;82.90;;;;;;11248107;22;20020;-55
2021/07/28 02:40:56;;;;;;;7.95;5.30;;;20.00;83.20;;;;;;9984229;28;20039;-56
2021/07/28 02:45:46;;;;;;;8.07;3.85;;;20.00;83.20;;;;;;9959967;28;20058;-55
2021/07/28 02:50:37;;;;;;;5.55;4.10;;;20.00;83.40;;;;;;9941925;28;20210;-56
2021/07/28 02:55:28;;;;;;;8.85;4.45;;;20.00;83.60;;;;;;9941916;28;20392;-55
2021/07/28 03:00:18;;;;;;;6.05;3.85;;;20.00;83.60;;;;;;9978200;28;20533;-55
2021/07/28 03:05:11;;;;;;;9.32;4.22;;;20.00;83.80;;;;;;9939221;28;20031;-60
2021/07/28 03:10:03;;;;;;;6.85;4.18;;;20.00;83.90;;;;;;9939305;28;20113;-56
2021/07/28 03:14:55;;;;;;;7.07;3.90;;;20.00;84.10;;;;;;9960391;28;20026;-55
2021/07/28 03:19:45;;;;;;;7.85;4.60;;;19.90;84.40;;;;;;9979695;28;20484;-57
2021/07/28 03:24:36;;;;;;;8.93;4.90;;;19.90;84.60;;;;;;9975217;28;20030;-56
2021/07/28 03:29:26;;;;;;;6.85;3.97;;;19.90;84.90;;;;;;9940823;28;20034;-56
2021/07/28 03:34:17;;;;;;;8.05;4.63;;;19.80;85.00;;;;;;9947552;28;20121;-56
2021/07/28 03:39:08;;;;;;;6.72;3.90;;;19.70;85.30;;;;;;9940192;28;20051;-60
2021/07/28 03:43:58;;;;;;;6.35;4.25;;;19.70;85.80;;;;;;9952859;28;20039;-62
2021/07/28 03:48:49;;;;;;;7.20;4.03;;;19.70;85.60;;;;;;9942228;28;20193;-62
2021/07/28 03:53:40;;;;;;;6.38;4.30;;;19.80;85.90;;;;;;9954451;28;20037;-61
2021/07/28 03:58:30;;;;;;;6.55;4.38;;;19.80;85.60;;;;;;9978910;28;20046;-58
2021/07/28 04:03:21;;;;;;;9.77;5.25;;;19.70;86.00;;;;;;9961185;28;20027;-53
2021/07/28 04:08:11;;;;;;;6.93;4.82;;;19.60;86.50;;;;;;9936529;28;20039;-57
2021/07/28 04:13:02;;;;;;;7.32;4.50;;;19.80;86.50;;;;;;9943451;28;20102;-56
2021/07/28 04:17:53;;;;;;;8.68;4.95;;;19.80;86.40;;;;;;9941443;28;20441;-55
2021/07/28 04:22:43;;;;;;;8.55;5.05;;;19.60;86.60;;;;;;9938165;28;20039;-57
2021/07/28 04:27:34;;;;;;;7.05;4.55;;;19.80;86.40;;;;;;9938838;28;20034;-57
2021/07/28 04:32:25;;;;;;;8.20;4.70;;;19.80;86.70;;;;;;9938926;28;20035;-55
2021/07/28 04:37:16;;;;;;;7.85;4.63;;;19.70;86.80;;;;;;9975070;28;20039;-53
2021/07/28 04:42:07;;;;;;;8.00;4.93;;;19.70;87.80;;;;;;9974842;28;20144;-55
2021/07/28 04:46:57;;;;;;;8.43;4.55;;;19.80;87.10;;;;;;9957599;28;20401;-58
2021/07/28 04:51:48;;;;;;;9.15;4.82;;;19.80;87.20;;;;;;9937326;28;20497;-56
2021/07/28 04:56:39;;;;;;;6.95;4.25;;;19.80;87.30;;;;;;9955857;28;20431;-57
2021/07/28 05:01:29;;;;;;;8.52;5.32;;;19.90;87.20;;;;;;9966149;28;20062;-61
2021/07/28 05:06:20;;;;;;;6.60;4.72;;;19.90;87.40;;;;;;9944666;28;20027;-58
2021/07/28 05:11:11;;;;;;;8.70;5.25;;;19.90;87.70;;;;;;9939575;28;20109;-55
2021/07/28 05:16:01;;;;;;;11.50;5.97;;;19.90;87.50;;;;;;9963430;28;20023;-57
2021/07/28 05:20:52;;;;;;;8.98;6.10;;;19.90;87.70;;;;;;9966882;28;20058;-57
2021/07/28 05:25:43;;;;;;;7.57;4.82;;;19.90;87.80;;;;;;9941747;28;20050;-54
2021/07/28 05:30:34;;;;;;;9.10;5.85;;;19.80;87.90;;;;;;9983360;28;20421;-52
2021/07/28 05:35:25;;;;;;;9.40;5.28;;;19.90;87.80;;;;;;9974627;28;20117;-55
2021/07/28 05:40:15;;;;;;;9.73;5.25;;;19.90;87.90;;;;;;9982600;28;20530;-60
2021/07/28 05:45:06;;;;;;;8.82;5.70;;;19.90;87.70;;;;;;9982310;28;20248;-56
2021/07/28 05:50:00;;;;;;;8.02;4.82;;;20.10;87.60;;;;;;9982580;28;20026;-57
2021/07/28 05:54:51;;;;;;;8.38;5.57;;;20.10;87.50;;;;;;9944670;28;20173;-58
2021/07/28 05:59:41;;;;;;;7.10;5.35;;;20.20;87.20;;;;;;9943027;28;20162;-53
2021/07/28 06:04:32;;;;;;;6.32;4.93;;;20.30;87.20;;;;;;9956151;28;20052;-54
2021/07/28 06:09:22;;;;;;;7.35;5.05;;;20.30;87.10;;;;;;9952564;28;20034;-57
2021/07/28 06:14:13;;;;;;;11.20;5.53;;;20.30;87.00;;;;;;9981813;28;20034;-54
2021/07/28 06:19:03;;;;;;;8.40;5.25;;;20.20;87.20;;;;;;9952926;28;20039;-54
2021/07/28 06:23:59;;;;;;;6.90;4.97;;;20.30;86.70;;;;;;9950285;28;20038;-52
2021/07/28 06:28:49;;;;;;;7.57;5.00;;;20.30;86.70;;;;;;9943244;28;20359;-59
2021/07/28 06:33:40;;;;;;;9.25;5.22;;;20.40;86.80;;;;;;9942548;28;20465;-54
2021/07/28 06:38:30;;;;;;;7.72;4.85;;;20.30;87.10;;;;;;9958629;28;20179;-53
2021/07/28 06:43:21;;;;;;;6.63;4.28;;;20.50;87.20;;;;;;9980534;28;20105;-57
2021/07/28 06:48:12;;;;;;;8.98;4.53;;;20.40;86.50;;;;;;9980192;28;20155;-60
2021/07/28 06:53:02;;;;;;;8.75;4.82;;;20.30;86.40;;;;;;9948197;28;20033;-57
2021/07/28 06:57:53;;;;;;;9.05;4.00;;;20.20;86.90;;;;;;9950741;28;20038;-57
2021/07/28 07:02:44;;;;;;;6.65;4.15;;;20.30;86.50;;;;;;9979818;28;20018;-55
2021/07/28 07:07:34;;;;;;;8.20;3.85;;;20.20;86.20;;;;;;9979318;28;20105;-54
2021/07/28 07:12:25;;;;;;;7.15;4.13;;;20.10;86.30;;;;;;9972188;28;20041;-59
2021/07/28 07:17:16;;;;;;;6.15;4.13;;;20.30;86.00;;;;;;9964958;28;20046;-57
2021/07/28 07:22:07;;;;;;;6.53;4.50;;;20.40;85.70;;;;;;9940759;28;20053;-60
2021/07/28 07:26:58;;;;;;;7.18;4.07;;;20.50;85.60;;;;;;9944441;28;20075;-58
2021/07/28 07:31:48;;;;;;;5.57;3.88;;;20.60;85.20;;;;;;9978484;28;20034;-57
2021/07/28 07:36:40;;;;;;;7.15;4.45;;;20.70;85.00;;;;;;9975624;28;20042;-57
2021/07/28 07:41:31;;;;;;;5.47;4.07;;;20.90;84.70;;;;;;9954813;28;20040;-59
2021/07/28 07:46:22;;;;;;;5.95;3.80;;;20.90;84.70;;;;;;9977713;28;20077;-57
2021/07/28 07:51:12;;;;;;;7.60;4.10;;;21.00;84.30;;;;;;9976821;28;20114;-58
2021/07/28 07:56:05;;;;;;;6.03;3.63;;;21.30;83.80;;;;;;9977721;28;20042;-55
2021/07/28 08:00:56;;;;;;;6.07;3.38;;;21.20;83.70;;;;;;9977858;28;20046;-57
2021/07/28 08:05:46;;;;;;;6.63;4.22;;;21.40;83.30;;;;;;9940255;28;20077;-59
2021/07/28 08:10:37;;;;;;;5.57;3.10;;;21.50;83.20;;;;;;9957980;28;20034;-53
2021/07/28 08:15:28;;;;;;;7.82;3.75;;;21.40;82.90;;;;;;9959063;28;20031;-58
2021/07/28 08:20:18;;;;;;;4.30;3.50;;;21.40;82.70;;;;;;9939100;28;20042;-57
2021/07/28 08:25:09;;;;;;;7.22;3.70;;;21.50;82.40;;;;;;9956512;28;20034;-60
2021/07/28 08:30:00;;;;;;;6.00;3.72;;;21.50;82.20;;;;;;9977160;28;20054;-59
2021/07/28 08:34:50;;;;;;;6.88;3.63;;;21.60;82.00;;;;;;9971181;28;20051;-61
2021/07/28 08:39:41;;;;;;;6.50;3.55;;;21.70;81.50;;;;;;9942611;28;20567;-57
2021/07/28 08:44:37;;;;;;;4.90;3.95;;;21.90;81.30;;;;;;9967435;28;20503;-59
2021/07/28 08:49:28;;;;;;;6.00;3.33;;;22.10;80.70;;;;;;9936980;28;20485;-57
2021/07/28 08:54:18;;;;;;;6.10;3.53;;;22.00;80.70;;;;;;9937696;28;20478;-53
2021/07/28 08:59:28;;;;;;;6.03;3.20;;;22.00;80.60;;;;;;9937391;28;20050;-57
2021/07/28 09:04:19;;;;;;;6.20;4.00;;;22.00;80.20;;;;;;9938099;28;20038;-55
2021/07/28 09:09:10;;;;;;;6.68;3.72;;;22.20;80.00;;;;;;9964188;28;20531;-58
2021/07/28 09:14:19;;;;;;;5.80;4.20;;;22.50;79.20;;;;;;9970363;28;20412;-59
2021/07/28 09:19:10;;;;;;;6.70;3.70;;;22.80;78.20;;;;;;9937847;28;20138;-57
2021/07/28 09:24:08;;;;;;;8.48;4.03;;;22.40;78.40;;;;;;9936782;28;20118;-58
2021/07/28 09:29:09;;;;;;;6.72;4.20;;;22.20;79.00;;;;;;9937575;28;20118;-55
2021/07/28 09:34:26;;;;;;;6.40;4.20;;;22.40;78.70;;;;;;9947633;28;20031;-57
2021/07/28 09:39:29;;;;;;;6.85;3.15;;;22.70;77.10;;;;;;9972734;28;20081;-57
2021/07/28 09:44:30;;;;;;;6.35;3.45;;;22.80;77.00;;;;;;9975139;28;20575;-57
2021/07/28 09:49:21;;;;;;;7.15;3.78;;;23.00;76.30;;;;;;9971727;28;20508;-55
2021/07/28 09:54:13;;;;;;;6.43;3.38;;;23.10;75.90;;;;;;9936440;28;20046;-59
2021/07/28 09:59:04;;;;;;;4.50;3.03;;;23.30;75.30;;;;;;9946674;28;20038;-58
2021/07/28 10:03:58;;;;;;;4.68;2.83;;;23.50;74.70;;;;;;9942667;28;20125;-60
2021/07/28 10:08:54;;;;;;;6.22;3.55;;;23.60;74.10;;;;;;9938188;28;20033;-60
2021/07/28 10:13:46;;;;;;;4.93;3.50;;;23.80;73.70;;;;;;9949851;28;20030;-59
2021/07/28 10:18:37;;;;;;;6.32;3.13;;;23.60;73.90;;;;;;9943297;28;20031;-61
2021/07/28 10:23:30;;;;;;;6.00;3.22;;;23.20;74.40;;;;;;9941495;28;20077;-58
2021/07/28 10:28:20;;;;;;;5.30;3.38;;;23.40;74.00;;;;;;9946468;28;20042;-60
2021/07/28 10:33:30;;;;;;;4.90;3.70;;;23.50;73.70;;;;;;9978284;28;20080;-59
2021/07/28 10:38:21;;;;;;;7.93;4.28;;;23.30;73.00;;;;;;9978614;28;20057;-62
2021/07/28 10:43:11;;;;;;;5.22;3.17;;;23.60;73.00;;;;;;9978701;28;20034;-56
2021/07/28 10:48:02;;;;;;;5.28;3.20;;;24.20;71.70;;;;;;9980358;28;20073;-59
2021/07/28 10:52:54;;;;;;;12.02;4.82;;;24.60;70.80;;;;;;9978857;28;20050;-58
2021/07/28 10:57:54;;;;;;;7.05;3.13;;;25.10;70.20;;;;;;9979515;28;20030;-58
2021/07/28 11:02:57;;;;;;;4.78;3.25;;;25.30;69.00;;;;;;9961719;28;20360;-59
2021/07/28 11:08:05;;;;;;;5.80;3.13;;;25.10;69.10;;;;;;9941069;28;20058;-62
2021/07/28 11:12:57;;;;;;;6.03;3.35;;;24.90;65.60;;;;;;9945582;28;20101;-62
2021/07/28 11:17:55;;;;;;;4.25;2.55;;;24.70;69.00;;;;;;9979465;28;20034;-56
2021/07/28 11:22:45;;;;;;;4.90;3.05;;;24.80;67.50;;;;;;9977813;28;20038;-61
2021/07/28 11:27:36;;;;;;;5.80;3.25;;;25.00;67.20;;;;;;9952238;28;20059;-59
2021/07/28 11:32:27;;;;;;;3.63;2.70;;;25.40;66.20;;;;;;9959759;28;20030;-59
2021/07/28 11:37:20;;;;;;;6.22;3.83;;;25.60;65.70;;;;;;9946719;28;20043;-58
2021/07/28 11:42:11;;;;;;;4.40;2.67;;;25.40;65.60;;;;;;9968144;28;20027;-62
2021/07/28 11:47:01;;;;;;;4.90;2.88;;;25.50;64.70;;;;;;9977936;28;20039;-57
2021/07/28 11:51:58;;;;;;;6.90;3.10;;;25.60;63.90;;;;;;9978188;28;20452;-61
2021/07/28 11:56:53;;;;;;;4.03;2.33;;;26.00;63.20;;;;;;9965800;28;20088;-60
2021/07/28 12:01:52;;;;;;;4.53;3.30;;;25.90;62.60;;;;;;9967621;28;20057;-59
2021/07/28 12:06:44;;;;;;;5.20;3.33;;;26.10;61.90;;;;;;9977864;28;20033;-55
2021/07/28 12:11:50;;;;;;;4.28;3.08;;;26.20;61.50;;;;;;9978237;28;20038;-58
2021/07/28 12:16:40;;;;;;;6.03;3.05;;;26.50;60.70;;;;;;9976788;28;20030;-61
2021/07/28 12:21:55;;;;;;;4.05;3.00;;;26.10;60.80;;;;;;9938582;28;20093;-60
2021/07/28 12:26:46;;;;;;;4.20;3.10;;;26.00;60.10;;;;;;9964139;28;20097;-59
2021/07/28 12:31:37;;;;;;;4.35;2.70;;;26.40;60.10;;;;;;9938161;28;20034;-59
2021/07/28 12:36:28;;;;;;;8.25;2.60;;;26.20;60.00;;;;;;9937190;28;20022;-61
2021/07/28 12:41:19;;;;;;;5.78;3.00;;;25.80;60.10;;;;;;9949391;28;20126;-58
2021/07/28 12:46:10;;;;;;;5.55;3.25;;;25.80;59.90;;;;;;9960736;28;20564;-55
2021/07/28 12:51:03;;;;;;;3.72;2.80;;;26.00;59.40;;;;;;9976295;28;20415;-60
2021/07/28 12:55:54;;;;;;;3.88;2.80;;;25.50;59.40;;;;;;9976365;28;20076;-57
2021/07/28 13:00:45;;;;;;;3.35;2.80;;;24.80;60.30;;;;;;9974324;28;20046;-60
2021/07/28 13:05:41;;;;;;;3.47;2.50;;;24.30;61.20;;;;;;9974198;28;20073;-60
2021/07/28 13:10:32;;;;;;;5.57;3.03;;;24.00;61.60;;;;;;9971929;28;20038;-56
2021/07/28 13:15:23;;;;;;;2.20;1.80;;;23.80;62.20;;;;;;9975922;28;20078;-58
2021/07/28 13:20:14;;;;;;;3.05;2.10;;;24.10;61.70;;;;;;9946095;28;20152;-57
2021/07/28 13:25:05;;;;;;;2.45;1.92;;;27.50;58.40;;;;;;9937971;28;20505;-58
2021/07/28 13:29:56;;;;;;;2.65;1.88;;;28.50;55.50;;;;;;9936101;28;20041;-62
2021/07/28 13:34:46;;;;;;;2.45;1.90;;;30.80;54.40;;;;;;9963895;28;20118;-57
2021/07/28 13:39:37;;;;;;;3.72;2.25;;;30.20;52.80;;;;;;9961316;28;20065;-62
2021/07/28 13:44:28;;;;;;;2.20;1.92;;;30.30;53.80;;;;;;9936369;28;20512;-60
2021/07/28 13:49:18;;;;;;;2.38;1.92;;;32.70;50.40;;;;;;9941657;28;20039;-58
2021/07/28 13:54:09;;;;;;;3.28;2.10;;;33.90;48.10;;;;;;9976042;28;20460;-60
2021/07/28 13:59:00;;;;;;;3.20;2.47;;;34.60;47.00;;;;;;9951374;28;20035;-58
2021/07/28 14:03:50;;;;;;;3.63;2.43;;;34.90;46.10;;;;;;9977169;28;20054;-58
2021/07/28 14:08:41;;;;;;;2.70;2.30;;;35.40;45.30;;;;;;9973514;28;20030;-58
2021/07/28 14:13:32;;;;;;;2.97;2.58;;;36.60;44.10;;;;;;9981685;28;20211;-58
2021/07/28 14:18:22;;;;;;;;;;;36.90;43.40;;;;;;9982088;28;20053;-60
2021/07/28 14:23:13;;;;;;;3.58;2.60;;;36.40;43.00;;;;;;9980947;28;19914;-60
2021/07/28 14:28:05;;;;;;;3.05;2.70;;;32.70;47.60;;;;;;9971070;28;20401;-57
2021/07/28 14:32:55;;;;;;;6.50;2.63;;;29.70;50.50;;;;;;9951211;28;20034;-56
2021/07/28 14:37:46;;;;;;;2.70;2.40;;;28.30;51.70;;;;;;9980666;28;20055;-58
2021/07/28 14:42:36;;;;;;;3.20;2.30;;;27.50;51.50;;;;;;9945476;28;20489;-59
2021/07/28 14:47:27;;;;;;;2.60;2.13;;;27.00;51.70;;;;;;9941640;28;20039;-57
2021/07/28 14:52:18;;;;;;;4.60;2.53;;;26.50;51.80;;;;;;9942086;28;20523;-58
2021/07/28 14:57:09;;;;;;;1.73;1.48;;;26.10;51.90;;;;;;9940097;28;20410;-57
2021/07/28 15:02:00;;;;;;;2.55;1.40;;;24.90;54.40;;;;;;9940569;28;20029;-55
2021/07/28 15:06:50;;;;;;;3.33;1.05;;;23.90;58.20;;;;;;9967049;28;20038;-58
2021/07/28 15:11:44;;;;;;;1.08;0.95;;;23.50;60.20;;;;;;9977357;28;20500;-57
2021/07/28 15:16:35;;;;;;;2.05;0.95;;;23.50;60.10;;;;;;9979141;28;20088;-57
2021/07/28 15:21:29;;;;;;;1.83;1.30;;;23.90;59.10;;;;;;9949758;28;20127;-58
2021/07/28 15:26:19;;;;;;;1.40;0.90;;;24.50;58.60;;;;;;9978860;28;20018;-59
2021/07/28 15:31:10;;;;;;;3.35;1.40;;;25.30;57.40;;;;;;9978522;28;20038;-55
2021/07/28 15:36:00;;;;;;;1.80;1.27;;;24.70;58.20;;;;;;9962918;28;20389;-59
2021/07/28 15:40:51;;;;;;;1.38;0.95;;;24.20;59.30;;;;;;9957704;28;20145;-57
2021/07/28 15:45:42;;;;;;;1.58;1.13;;;24.00;59.70;;;;;;9939215;28;20023;-57
2021/07/28 15:50:32;;;;;;;1.17;0.90;;;24.00;60.00;;;;;;9940703;28;20499;-56
2021/07/28 15:55:24;;;;;;;1.73;1.25;;;24.00;59.90;;;;;;9939209;28;20026;-62
2021/07/28 16:00:15;;;;;;;2.05;1.25;;;24.20;59.90;;;;;;9939575;28;20034;-57
2021/07/28 16:05:06;;;;;;;1.48;0.88;;;24.50;59.40;;;;;;9950031;28;20073;-62
2021/07/28 16:09:58;;;;;;;1.42;1.13;;;24.80;59.00;;;;;;9962708;28;20049;-59
2021/07/28 16:15:19;;;;;;;2.63;1.08;;;24.70;59.00;;;;;;9972039;28;20118;-58
2021/07/28 16:20:14;;;;;;;1.38;1.10;;;24.60;58.90;;;;;;9942903;28;20034;-58
2021/07/28 16:25:04;;;;;;;2.22;1.45;;;24.50;58.80;;;;;;9939394;28;20035;-58
2021/07/28 16:29:55;;;;;;;1.50;1.10;;;24.70;58.10;;;;;;9938775;28;20507;-58
2021/07/28 16:34:46;;;;;;;1.60;1.25;;;24.90;57.20;;;;;;9938316;28;20037;-59
2021/07/28 16:39:37;;;;;;;2.03;1.30;;;25.40;55.70;;;;;;9959322;28;20058;-57
2021/07/28 16:44:27;;;;;;;1.77;1.20;;;25.00;56.50;;;;;;9971874;28;20126;-59
2021/07/28 16:49:18;;;;;;;2.90;1.58;;;24.90;56.50;;;;;;9937537;28;20118;-58
2021/07/28 16:54:09;;;;;;;2.15;1.02;;;24.70;56.50;;;;;;9954179;28;20376;-59
2021/07/28 16:59:00;;;;;;;2.17;1.63;;;24.60;56.80;;;;;;9958607;28;20129;-59
2021/07/28 17:03:50;;;;;;;2.55;1.08;;;24.30;57.20;;;;;;9964402;28;20447;-59
2021/07/28 17:08:44;;;;;;;2.13;1.13;;;24.30;57.40;;;;;;9975683;28;20045;-58
2021/07/28 17:13:35;;;;;;;2.00;1.47;;;24.30;57.50;;;;;;9974982;28;20049;-55
2021/07/28 17:18:26;;;;;;;2.25;1.92;;;24.30;57.50;;;;;;9975039;28;20053;-60
2021/07/28 17:23:16;;;;;;;3.13;1.95;;;24.30;57.70;;;;;;9980729;28;20026;-57
2021/07/28 17:28:07;;;;;;;2.88;1.30;;;24.20;58.20;;;;;;9986513;28;20038;-59
2021/07/28 17:32:58;;;;;;;3.70;1.38;;;24.20;58.10;;;;;;9988195;28;20591;-58
2021/07/28 17:37:48;;;;;;;2.22;1.30;;;24.30;58.00;;;;;;9981812;28;20050;-59
2021/07/28 17:42:39;;;;;;;2.05;1.60;;;24.30;58.00;;;;;;9962261;28;20230;-59
2021/07/28 17:47:30;;;;;;;3.95;1.40;;;24.50;57.90;;;;;;9987351;28;20693;-59
2021/07/28 17:52:21;;;;;;;2.63;1.80;;;24.70;57.80;;;;;;9988748;28;20096;-58
2021/07/28 17:57:11;;;;;;;1.38;0.93;;;25.20;56.70;;;;;;9986841;28;20026;-58
2021/07/28 18:02:02;;;;;;;1.70;1.40;;;25.20;56.80;;;;;;9987529;28;20100;-54
2021/07/28 18:06:59;;;;;;;2.03;1.40;;;25.10;57.40;;;;;;9978289;28;20019;-60
2021/07/28 18:11:50;;;;;;;9.63;2.78;;;25.00;57.60;;;;;;9970297;28;20105;-56
2021/07/28 18:16:41;;;;;;;9.60;3.95;;;24.80;57.80;;;;;;9987801;28;20189;-55
2021/07/28 18:21:32;;;;;;;5.28;1.70;;;24.70;58.10;;;;;;9971428;28;20366;-56
2021/07/28 18:26:23;;;;;;;3.45;2.05;;;24.50;58.50;;;;;;9969138;28;20031;-57
2021/07/28 18:31:13;;;;;;;2.45;1.52;;;24.50;58.70;;;;;;9963245;28;20393;-59
2021/07/28 18:36:05;;;;;;;2.22;1.50;;;24.30;59.00;;;;;;9942157;28;20038;-57
2021/07/28 18:40:56;;;;;;;3.25;2.17;;;24.20;59.10;;;;;;9942816;28;20497;-58
2021/07/28 18:45:46;;;;;;;3.15;1.70;;;24.10;59.20;;;;;;9943754;28;20027;-56
2021/07/28 18:50:37;;;;;;;2.38;1.45;;;24.10;59.30;;;;;;9941971;28;20030;-55
2021/07/28 18:55:28;;;;;;;3.38;2.50;;;24.10;59.40;;;;;;9950593;28;20320;-56
2021/07/28 19:00:18;;;;;;;4.32;2.08;;;24.00;59.50;;;;;;9980556;28;20066;-53
2021/07/28 19:05:09;;;;;;;2.95;1.55;;;24.00;59.70;;;;;;9979734;28;20166;-60
2021/07/28 19:10:00;;;;;;;4.28;1.52;;;24.00;59.80;;;;;;9979635;28;20042;-57
2021/07/28 19:14:50;;;;;;;2.05;1.38;;;23.80;60.00;;;;;;9975770;28;20035;-56
2021/07/28 19:19:41;;;;;;;2.65;1.73;;;23.60;60.30;;;;;;9979143;28;20412;-57
2021/07/28 19:24:31;;;;;;;3.58;1.48;;;23.40;60.30;;;;;;9970143;28;20057;-59
2021/07/28 19:29:22;;;;;;;2.08;1.40;;;23.40;60.10;;;;;;9979325;28;20646;-55
2021/07/28 19:34:13;;;;;;;1.45;1.05;;;23.30;59.90;;;;;;9971840;28;20415;-56
2021/07/28 19:39:05;;;;;;;2.63;1.30;;;23.20;59.90;;;;;;9938200;28;20425;-59
2021/07/28 19:43:56;;;;;;;2.80;1.30;;;23.30;59.90;;;;;;9950893;28;20089;-58
2021/07/28 19:48:46;;;;;;;1.63;1.05;;;23.20;59.70;;;;;;9938392;28;20130;-58
2021/07/28 19:53:37;;;;;;;0.98;0.85;;;23.10;59.60;;;;;;9939295;28;20023;-55
2021/07/28 19:58:28;;;;;;;1.90;1.20;;;23.10;59.50;;;;;;9939078;28;20034;-57
2021/07/28 20:03:19;;;;;;;1.58;1.05;;;23.10;59.50;;;;;;9958247;28;20092;-57
2021/07/28 20:08:10;;;;;;;1.65;1.08;;;23.00;59.50;;;;;;9975230;28;20033;-57
2021/07/28 20:13:01;;;;;;;2.50;1.30;;;22.90;59.60;;;;;;9946323;28;20146;-57
2021/07/28 20:17:52;;;;;;;2.40;1.30;;;22.80;59.90;;;;;;9957877;28;20062;-60
2021/07/28 20:22:43;;;;;;;1.75;1.15;;;22.70;59.90;;;;;;9964137;28;20027;-56
2021/07/28 20:27:34;;;;;;;4.10;1.33;;;22.70;60.00;;;;;;9938232;28;20197;-59
2021/07/28 20:32:26;;;;;;;2.08;1.60;;;22.60;60.10;;;;;;9938712;28;20105;-55
2021/07/28 20:37:17;;;;;;;1.10;1.00;;;22.60;60.00;;;;;;9938933;28;20039;-58
2021/07/28 20:42:07;;;;;;;2.42;2.05;;;22.60;60.20;;;;;;9959069;28;20061;-58
2021/07/28 20:46:58;;;;;;;2.40;1.33;;;22.50;60.10;;;;;;9937706;28;20085;-56
2021/07/28 20:51:49;;;;;;;2.17;1.20;;;22.60;60.00;;;;;;9937282;28;20039;-62
2021/07/28 20:56:40;;;;;;;1.75;1.13;;;22.60;60.10;;;;;;9936898;28;20042;-53
2021/07/28 21:01:32;;;;;;;1.67;1.08;;;22.50;60.40;;;;;;9937391;28;20053;-58
2021/07/28 21:06:22;;;;;;;1.00;0.80;;;22.40;60.70;;;;;;9973250;28;20081;-60
2021/07/28 21:11:13;;;;;;;1.50;1.17;;;22.40;60.90;;;;;;9973569;28;20030;-57
2021/07/28 21:16:04;;;;;;;2.78;1.20;;;22.30;61.00;;;;;;9975565;28;20392;-56
2021/07/28 21:20:56;;;;;;;2.33;1.27;;;22.40;61.00;;;;;;9966621;28;20101;-58
2021/07/28 21:25:47;;;;;;;2.22;1.30;;;22.30;61.30;;;;;;9938808;28;20030;-58
2021/07/28 21:30:37;;;;;;;1.85;1.23;;;22.20;61.50;;;;;;9958061;28;20026;-55
2021/07/28 21:35:29;;;;;;;1.98;1.20;;;22.10;61.70;;;;;;9958439;28;20027;-58
2021/07/28 21:40:20;;;;;;;2.33;1.38;;;22.00;62.00;;;;;;9962613;28;20054;-56
2021/07/28 21:50:25;;;;;;;1.73;1.27;;;22.00;62.00;;;;;;9940248;28;20104;-58
2021/07/28 21:55:21;;;;;;;1.42;1.23;;;22.00;61.90;;;;;;9959909;28;20061;-57
2021/07/28 22:00:13;;;;;;;1.98;1.10;;;22.00;62.00;;;;;;9946124;28;20459;-58
2021/07/28 22:05:04;;;;;;;2.08;1.70;;;22.00;61.90;;;;;;9936189;28;20037;-57
2021/07/28 22:09:54;;;;;;;2.20;1.50;;;22.10;61.80;;;;;;9946986;28;20097;-55
2021/07/28 22:14:45;;;;;;;2.50;0.93;;;22.10;61.70;;;;;;9968654;28;20030;-56
2021/07/28 22:19:39;;;;;;;1.70;1.20;;;22.20;61.60;;;;;;9965638;28;20571;-56
2021/07/28 22:24:35;;;;;;;1.58;1.05;;;22.10;61.60;;;;;;9973138;28;20469;-55
2021/07/28 22:29:25;;;;;;;2.15;1.30;;;22.10;61.80;;;;;;9942633;28;20066;-54
2021/07/28 22:34:16;;;;;;;1.85;1.17;;;22.10;61.70;;;;;;9979890;28;20440;-56
2021/07/28 22:39:07;;;;;;;2.22;1.10;;;22.00;62.00;;;;;;9981002;28;20516;-58
2021/07/28 22:43:57;;;;;;;2.50;1.23;;;22.00;62.20;;;;;;9952494;28;20031;-58
2021/07/28 22:58:29;;;;;;;1.90;1.27;;;21.90;62.10;;;;;;9954156;28;20053;-56
2021/07/28 23:08:29;;;;;;;2.33;1.38;;;22.00;61.80;;;;;;9942068;28;20034;-56
2021/07/28 23:13:19;;;;;;;1.90;1.00;;;22.00;61.80;;;;;;9947617;28;20496;-56
2021/07/28 23:18:12;;;;;;;1.67;0.88;;;22.00;61.90;;;;;;9941520;28;20058;-58
2021/07/28 23:23:03;;;;;;;0.90;0.77;;;22.00;61.80;;;;;;9940608;28;20656;-59
2021/07/28 23:27:54;;;;;;;2.92;1.40;;;22.00;61.70;;;;;;9965313;28;20031;-58
2021/07/28 23:32:44;;;;;;;2.13;1.15;;;22.00;62.00;;;;;;9965714;28;20427;-54
2021/07/28 23:37:36;;;;;;;2.42;0.95;;;21.90;62.10;;;;;;9945385;28;20150;-57
2021/07/28 23:42:26;;;;;;;2.80;1.20;;;21.90;62.40;;;;;;9940037;28;20109;-57
2021/07/28 23:47:18;;;;;;;2.92;1.40;;;21.70;62.70;;;;;;9940076;28;20125;-55
2021/07/28 23:52:09;;;;;;;1.55;1.10;;;21.60;62.70;;;;;;9939744;28;20031;-55
2021/07/28 23:57:00;;;;;;;3.35;1.30;;;21.60;63.10;;;;;;9974091;28;20484;-55
